Time;durP1;ratioP1;P1;durP2;ratioP2;P2;SDS_P1;SDS_P2;PMS_P1;PMS_P2;Temp;Humidity;BMP_temperature;BMP_pressure;BME280_temperature;BME280_humidity;BME280_pressure;Samples;Min_cycle;Max_cycle;Signal;HPM_P1;HPM_P2
2022/11/03 00:01:08;;;;;;;14.80;3.20;;;8.30;99.90;;;;;;5118713;27;20692;-83
2022/11/03 00:03:34;;;;;;;10.33;4.13;;;8.30;99.90;;;;;;5117318;27;21400;-84
2022/11/03 00:06:03;;;;;;;3.23;2.30;;;8.40;99.90;;;;;;5124762;27;20684;-84
2022/11/03 00:08:30;;;;;;;3.90;3.60;;;8.40;99.90;;;;;;5128995;27;20630;-85
2022/11/03 00:11:02;;;;;;;2.10;1.73;;;8.40;99.90;;;;;;5114556;27;20616;-83
2022/11/03 00:13:29;;;;;;;2.30;2.03;;;9.00;99.90;;;;;;5109406;28;20651;-83
2022/11/03 00:15:56;;;;;;;2.47;2.27;;;8.50;99.90;;;;;;5111296;27;20676;-84
2022/11/03 00:18:24;;;;;;;2.93;2.67;;;8.50;99.90;;;;;;5122010;27;21368;-84
2022/11/03 00:20:56;;;;;;;4.10;3.70;;;8.60;99.90;;;;;;5114667;27;20668;-84
2022/11/03 00:23:25;;;;;;;2.23;2.03;;;8.60;99.90;;;;;;5113474;27;20612;-83
2022/11/03 00:25:52;;;;;;;6.20;3.30;;;8.60;99.90;;;;;;5113797;27;20615;-84
2022/11/03 00:28:19;;;;;;;2.90;2.70;;;8.60;99.90;;;;;;5114931;27;20612;-83
2022/11/03 00:30:46;;;;;;;3.40;2.40;;;8.50;99.90;;;;;;5115219;27;20717;-84
2022/11/03 00:33:13;;;;;;;3.90;2.20;;;8.50;99.90;;;;;;5125453;27;20615;-83
2022/11/03 00:35:41;;;;;;;12.10;3.60;;;8.40;99.90;;;;;;5118792;27;20623;-84
2022/11/03 00:38:08;;;;;;;3.07;2.77;;;8.40;99.90;;;;;;5117530;27;20726;-84
2022/11/03 00:40:34;;;;;;;3.60;3.30;;;8.60;99.90;;;;;;5115343;27;20690;-84
2022/11/03 00:43:01;;;;;;;5.17;3.20;;;8.60;99.90;;;;;;5122930;27;20610;-83
2022/11/03 00:45:28;;;;;;;3.50;3.20;;;8.50;99.90;;;;;;5116234;27;21209;-84
2022/11/03 00:50:41;;;;;;;3.63;3.33;;;8.40;99.90;;;;;;5116461;27;21113;-84
2022/11/03 00:53:08;;;;;;;3.10;2.47;;;8.40;99.90;;;;;;5109339;28;20714;-83
2022/11/03 00:55:35;;;;;;;3.70;2.70;;;8.30;99.90;;;;;;5117777;27;20646;-84
2022/11/03 00:58:02;;;;;;;6.23;2.93;;;8.30;99.90;;;;;;5127675;27;20619;-84
2022/11/03 01:00:29;;;;;;;6.10;2.80;;;8.20;99.90;;;;;;5120142;27;20666;-83
2022/11/03 01:02:56;;;;;;;2.77;2.23;;;8.30;99.90;;;;;;5128086;27;20621;-84
2022/11/03 01:08:08;;;;;;;3.17;2.47;;;8.10;99.90;;;;;;5116794;27;20610;-83
2022/11/03 01:11:42;;;;;;;2.23;2.10;;;7.90;99.90;;;;;;5128520;27;20615;-84
2022/11/03 01:13:25;;;;;;;2.60;2.13;;;7.90;99.90;;;;;;5116755;27;21205;-84
2022/11/03 01:15:52;;;;;;;2.67;2.47;;;7.90;99.90;;;;;;5123194;27;21250;-83
2022/11/03 01:18:19;;;;;;;3.27;2.90;;;7.90;99.90;;;;;;5128492;27;20638;-84
2022/11/03 01:20:45;;;;;;;4.37;2.43;;;7.90;99.90;;;;;;5128898;27;20739;-83
2022/11/03 01:23:14;;;;;;;5.00;2.60;;;7.90;99.90;;;;;;5121690;28;20614;-84
2022/11/03 01:25:41;;;;;;;4.13;2.70;;;8.40;99.90;;;;;;5112468;27;20724;-83
2022/11/03 01:28:07;;;;;;;3.17;2.57;;;7.80;99.90;;;;;;5116582;28;20607;-83
2022/11/03 01:30:34;;;;;;;4.17;3.33;;;6.90;99.90;;;;;;5109011;28;20673;-83
2022/11/03 01:33:01;;;;;;;4.50;4.10;;;7.80;99.90;;;;;;5115301;28;21195;-83
2022/11/03 01:35:28;;;;;;;3.60;3.00;;;7.70;99.90;;;;;;5118325;27;20649;-83
2022/11/03 01:37:55;;;;;;;3.90;2.10;;;7.70;99.90;;;;;;5122022;28;20712;-84
2022/11/03 01:40:24;;;;;;;3.93;2.83;;;7.70;99.90;;;;;;5120516;27;21241;-83
2022/11/03 01:42:51;;;;;;;10.93;3.00;;;7.60;99.90;;;;;;5119330;28;20655;-84
2022/11/03 01:45:18;;;;;;;3.93;2.50;;;7.60;99.90;;;;;;5113307;28;20655;-83
2022/11/03 01:47:46;;;;;;;3.20;2.90;;;7.60;99.90;;;;;;5126389;27;20723;-84
2022/11/03 01:50:18;;;;;;;2.40;2.20;;;7.60;99.90;;;;;;5107933;28;21033;-83
2022/11/03 01:52:48;;;;;;;2.70;2.50;;;7.60;99.90;;;;;;5113051;28;20731;-84
2022/11/03 01:55:19;;;;;;;2.83;2.57;;;7.60;99.90;;;;;;5109573;28;20735;-83
2022/11/03 01:57:54;;;;;;;4.20;2.37;;;7.70;99.90;;;;;;5110494;27;21227;-83
2022/11/03 02:00:21;;;;;;;3.70;2.10;;;7.70;99.90;;;;;;5115046;27;21073;-84
2022/11/03 02:02:48;;;;;;;2.77;2.30;;;7.80;99.90;;;;;;5118103;27;20655;-83
2022/11/03 02:05:16;;;;;;;3.00;2.70;;;7.90;99.90;;;;;;5112059;27;20652;-84
2022/11/03 02:07:49;;;;;;;2.53;2.37;;;7.90;99.90;;;;;;5121769;27;20719;-83
2022/11/03 02:10:17;;;;;;;2.43;2.23;;;7.90;99.90;;;;;;5130554;27;21208;-83
2022/11/03 02:12:44;;;;;;;2.33;2.00;;;7.80;99.90;;;;;;5121249;27;20630;-83
2022/11/03 02:15:16;;;;;;;2.50;2.33;;;7.80;99.90;;;;;;5120000;27;20639;-83
2022/11/03 02:17:44;;;;;;;2.60;1.83;;;7.80;99.90;;;;;;5127476;27;21127;-84
2022/11/03 02:20:15;;;;;;;4.83;1.90;;;7.60;99.90;;;;;;5124432;27;21160;-83
2022/11/03 02:23:03;;;;;;;2.60;2.33;;;7.70;99.90;;;;;;5112658;27;20611;-84
2022/11/03 02:25:50;;;;;;;2.37;2.17;;;7.70;99.90;;;;;;5127361;27;21326;-84
2022/11/03 02:28:19;;;;;;;3.03;1.67;;;7.70;99.90;;;;;;5118325;27;20639;-84
2022/11/03 02:30:53;;;;;;;2.47;1.50;;;7.70;99.90;;;;;;5111891;28;20987;-84
2022/11/03 02:33:30;;;;;;;4.57;1.83;;;8.00;99.90;;;;;;5116987;27;20607;-84
2022/11/03 02:36:06;;;;;;;3.17;2.27;;;7.50;99.90;;;;;;5115199;27;20634;-83
2022/11/03 02:38:38;;;;;;;2.10;2.00;;;7.40;99.90;;;;;;5125632;27;21214;-84
2022/11/03 02:41:09;;;;;;;1.50;1.40;;;7.60;99.90;;;;;;5121073;27;20679;-84
2022/11/03 02:43:37;;;;;;;5.33;1.70;;;7.60;99.90;;;;;;5111790;28;20641;-84
2022/11/03 02:46:06;;;;;;;4.23;1.97;;;7.70;99.90;;;;;;5127008;27;20650;-84
2022/11/03 02:48:34;;;;;;;1.23;1.13;;;7.80;99.90;;;;;;5113119;27;20627;-83
2022/11/03 02:51:03;;;;;;;1.52;1.42;;;7.80;99.90;;;;;;5123191;27;20620;-84
2022/11/03 02:53:30;;;;;;;2.67;1.70;;;7.80;99.90;;;;;;5111336;28;20696;-84
2022/11/03 02:56:03;;;;;;;2.50;1.40;;;7.90;99.90;;;;;;5123332;27;21492;-84
2022/11/03 02:58:38;;;;;;;1.47;1.37;;;7.90;99.90;;;;;;5129478;27;20663;-83
2022/11/03 03:01:13;;;;;;;1.87;1.67;;;8.00;99.90;;;;;;5130474;27;20661;-84
2022/11/03 03:03:46;;;;;;;1.67;1.50;;;8.30;99.90;;;;;;5114237;27;20626;-83
2022/11/03 03:06:19;;;;;;;1.40;1.30;;;8.40;99.90;;;;;;5131441;27;21235;-83
2022/11/03 03:08:49;;;;;;;1.80;1.70;;;8.20;99.90;;;;;;5127494;27;20618;-83
2022/11/03 03:11:35;;;;;;;4.00;1.97;;;8.10;99.90;;;;;;5130884;27;20614;-83
2022/11/03 03:14:07;;;;;;;2.43;1.73;;;8.00;99.90;;;;;;5109282;27;20639;-84
2022/11/03 03:16:41;;;;;;;3.13;2.47;;;7.90;99.90;;;;;;5116660;27;20718;-84
2022/11/03 03:19:17;;;;;;;2.63;1.53;;;7.90;99.90;;;;;;5114899;27;20635;-83
2022/11/03 03:21:50;;;;;;;1.40;1.23;;;8.10;99.90;;;;;;5131094;27;20622;-83
2022/11/03 03:24:26;;;;;;;2.07;1.83;;;7.80;99.90;;;;;;5123647;27;20611;-84
2022/11/03 03:26:57;;;;;;;2.53;2.07;;;7.90;99.90;;;;;;5131608;27;20729;-83
2022/11/03 03:29:29;;;;;;;3.03;1.73;;;7.90;99.90;;;;;;5130020;27;20703;-84
2022/11/03 03:31:59;;;;;;;2.20;2.07;;;7.70;99.90;;;;;;5131538;27;20999;-83
2022/11/03 03:34:28;;;;;;;3.47;2.40;;;7.70;99.90;;;;;;5126601;27;20622;-84
2022/11/03 03:36:58;;;;;;;2.23;1.83;;;7.60;99.90;;;;;;5112259;27;20714;-84
2022/11/03 03:39:28;;;;;;;6.83;2.60;;;7.60;99.90;;;;;;5130102;27;20622;-83
2022/11/03 03:41:58;;;;;;;2.50;2.23;;;7.60;99.90;;;;;;5126713;27;20637;-83
2022/11/03 03:44:28;;;;;;;2.10;1.70;;;7.60;99.90;;;;;;5131351;27;20703;-83
2022/11/03 03:47:00;;;;;;;4.77;2.43;;;7.70;99.90;;;;;;5114747;27;20632;-84
2022/11/03 03:49:27;;;;;;;2.70;2.60;;;7.60;99.90;;;;;;5129568;27;21010;-84
2022/11/03 03:51:54;;;;;;;1.17;1.10;;;7.70;99.90;;;;;;5127824;27;20620;-84
2022/11/03 03:54:21;;;;;;;1.20;1.10;;;7.60;99.90;;;;;;5112112;27;21229;-83
2022/11/03 03:56:56;;;;;;;3.73;1.83;;;8.60;99.90;;;;;;5130914;27;20614;-83
2022/11/03 03:59:23;;;;;;;2.60;1.43;;;;;;;;;;5123316;27;20615;-83
2022/11/03 04:01:52;;;;;;;7.17;1.87;;;7.70;99.90;;;;;;5114219;27;20984;-84
2022/11/03 04:04:19;;;;;;;3.50;2.03;;;7.70;99.90;;;;;;5115994;27;20623;-83
2022/11/03 04:06:46;;;;;;;3.90;2.07;;;7.70;99.90;;;;;;5110932;27;20623;-83
2022/11/03 04:09:12;;;;;;;2.50;2.08;;;7.80;99.90;;;;;;5116592;27;21311;-84
2022/11/03 04:22:47;;;;;;;2.53;2.33;;;7.40;99.90;;;;;;5115187;27;20687;-84
2022/11/03 04:25:15;;;;;;;3.20;2.93;;;7.40;99.90;;;;;;5121996;27;20626;-83
2022/11/03 04:27:43;;;;;;;1.52;1.42;;;7.40;99.90;;;;;;5113657;27;20702;-84
2022/11/03 04:30:15;;;;;;;2.10;2.00;;;7.50;99.90;;;;;;5108523;28;20190;-84
2022/11/03 04:32:45;;;;;;;4.13;2.30;;;7.50;99.90;;;;;;5109366;28;20612;-84
2022/11/03 04:35:17;;;;;;;4.60;4.03;;;7.70;99.90;;;;;;5108929;28;20655;-84
2022/11/03 04:37:44;;;;;;;17.33;2.70;;;7.60;99.90;;;;;;5108980;28;20972;-84
2022/11/03 04:40:16;;;;;;;2.13;1.90;;;7.60;99.90;;;;;;5109158;28;20655;-84
2022/11/03 04:42:44;;;;;;;3.33;2.38;;;7.40;99.90;;;;;;5109314;28;20620;-84
2022/11/03 04:45:22;;;;;;;4.30;1.97;;;7.40;99.90;;;;;;5109602;28;20190;-83
2022/11/03 04:47:51;;;;;;;2.87;2.47;;;7.00;99.90;;;;;;5108960;28;21242;-84
2022/11/03 04:50:20;;;;;;;2.70;2.40;;;7.40;99.90;;;;;;5108682;28;20616;-83
2022/11/03 04:52:47;;;;;;;2.97;1.73;;;7.50;99.90;;;;;;5108458;28;21196;-84
2022/11/03 04:55:16;;;;;;;3.30;2.60;;;7.40;99.90;;;;;;5109218;28;20624;-84
2022/11/03 04:57:43;;;;;;;3.20;2.60;;;7.30;99.90;;;;;;5109077;28;20619;-84
2022/11/03 05:00:16;;;;;;;2.63;1.85;;;7.30;99.90;;;;;;5107931;28;21508;-85
2022/11/03 05:02:44;;;;;;;3.10;2.10;;;7.20;99.90;;;;;;5108799;28;20226;-84
2022/11/03 05:05:20;;;;;;;2.38;2.15;;;7.10;99.90;;;;;;5110817;27;20673;-84
2022/11/03 05:07:49;;;;;;;2.60;2.20;;;7.10;99.90;;;;;;5113848;27;20266;-84
2022/11/03 05:10:18;;;;;;;5.90;2.97;;;7.30;99.90;;;;;;5109775;28;21252;-84
2022/11/03 05:12:47;;;;;;;4.72;2.50;;;7.10;99.90;;;;;;5129227;27;20725;-84
2022/11/03 05:15:28;;;;;;;4.18;2.40;;;7.10;99.90;;;;;;5127245;27;20204;-84
2022/11/03 05:17:56;;;;;;;1.83;1.73;;;7.10;99.90;;;;;;5117019;27;20455;-85
2022/11/03 05:20:31;;;;;;;4.60;2.60;;;7.10;99.90;;;;;;5120028;27;20267;-84
2022/11/03 05:22:58;;;;;;;3.60;1.90;;;;;;;;;;5114905;27;20664;-86
2022/11/03 05:25:39;;;;;;;2.10;1.90;;;7.10;99.90;;;;;;5119411;27;20626;-84
2022/11/03 05:28:19;;;;;;;10.93;3.83;;;7.20;99.90;;;;;;5107940;28;21147;-83
2022/11/03 05:30:47;;;;;;;4.50;3.80;;;7.20;99.90;;;;;;5112502;28;20643;-83
2022/11/03 05:33:25;;;;;;;2.65;2.42;;;7.00;99.90;;;;;;5124839;27;20201;-83
2022/11/03 05:35:54;;;;;;;2.67;1.98;;;6.90;99.90;;;;;;5120948;27;20627;-83
2022/11/03 05:38:22;;;;;;;3.07;2.87;;;6.80;99.90;;;;;;5127849;27;20758;-83
2022/11/03 05:40:55;;;;;;;4.95;2.85;;;6.70;99.90;;;;;;5116595;27;20714;-84
2022/11/03 05:43:22;;;;;;;4.70;2.80;;;6.90;99.90;;;;;;5123025;27;20233;-83
2022/11/03 05:45:50;;;;;;;3.53;2.83;;;7.00;99.90;;;;;;5122296;27;21120;-83
2022/11/03 05:48:26;;;;;;;2.58;2.30;;;7.00;99.90;;;;;;5119338;27;20242;-85
2022/11/03 05:50:59;;;;;;;2.63;2.42;;;6.90;99.90;;;;;;5123528;27;20197;-84
2022/11/03 05:53:29;;;;;;;3.55;2.75;;;6.90;99.90;;;;;;5122883;27;20247;-83
2022/11/03 05:55:59;;;;;;;3.60;3.03;;;6.80;99.90;;;;;;5118560;27;20224;-83
2022/11/03 05:58:29;;;;;;;3.40;2.83;;;6.80;99.90;;;;;;5121322;27;20635;-83
2022/11/03 06:00:56;;;;;;;2.50;2.30;;;6.80;99.90;;;;;;5115049;27;20745;-84
2022/11/03 06:03:25;;;;;;;3.03;2.72;;;7.40;99.90;;;;;;5129496;27;20686;-83
2022/11/03 06:05:54;;;;;;;3.05;1.92;;;6.80;99.90;;;;;;5132387;27;20204;-83
2022/11/03 06:08:24;;;;;;;3.63;2.83;;;6.90;99.90;;;;;;5130008;27;20604;-83
2022/11/03 06:10:54;;;;;;;2.58;2.33;;;6.80;99.90;;;;;;5115610;27;20251;-83
2022/11/03 06:13:26;;;;;;;2.00;1.90;;;6.80;99.90;;;;;;5125160;27;20224;-83
2022/11/03 06:15:58;;;;;;;2.25;1.58;;;7.20;99.90;;;;;;5118128;27;20206;-83
2022/11/03 06:18:30;;;;;;;3.53;1.80;;;6.90;99.90;;;;;;5131377;27;20194;-83
2022/11/03 06:21:11;;;;;;;2.25;1.83;;;6.90;99.90;;;;;;5125543;27;21061;-83
2022/11/03 06:23:40;;;;;;;3.45;2.40;;;6.90;99.90;;;;;;5120170;27;20225;-83
2022/11/03 06:26:16;;;;;;;3.03;2.13;;;7.10;99.90;;;;;;5129975;27;20572;-83
2022/11/03 06:28:43;;;;;;;2.53;2.30;;;7.10;99.90;;;;;;5110900;28;20684;-83
2022/11/03 06:31:18;;;;;;;2.50;1.98;;;7.00;99.90;;;;;;5110782;28;20217;-83
2022/11/03 06:33:45;;;;;;;2.67;2.20;;;7.10;99.90;;;;;;5110264;27;20213;-83
2022/11/03 06:36:18;;;;;;;2.17;1.98;;;7.10;99.90;;;;;;5108960;28;20631;-82
2022/11/03 06:38:50;;;;;;;2.92;2.25;;;8.60;99.90;;;;;;5113578;27;20197;-82
2022/11/03 06:41:23;;;;;;;2.65;2.45;;;7.10;99.90;;;;;;5123299;27;20720;-82
2022/11/03 06:43:50;;;;;;;3.50;2.90;;;7.10;99.90;;;;;;5111191;27;20189;-83
2022/11/03 06:46:21;;;;;;;3.80;2.78;;;7.00;99.90;;;;;;5118396;27;20232;-82
2022/11/03 06:48:48;;;;;;;3.50;2.40;;;7.00;99.90;;;;;;5110430;27;20222;-82
2022/11/03 06:51:20;;;;;;;3.90;3.30;;;6.90;99.90;;;;;;5128824;27;20190;-83
2022/11/03 06:53:48;;;;;;;1.67;1.58;;;6.90;99.90;;;;;;5117875;27;20288;-82
2022/11/03 06:56:20;;;;;;;2.60;1.77;;;7.10;99.90;;;;;;5120669;27;20185;-85
2022/11/03 06:58:48;;;;;;;2.87;2.10;;;7.10;99.90;;;;;;5127773;27;20267;-83
2022/11/03 07:01:18;;;;;;;2.90;2.37;;;7.10;99.90;;;;;;5114690;27;20708;-83
2022/11/03 07:03:45;;;;;;;2.47;1.57;;;7.10;99.90;;;;;;5122750;27;20694;-83
2022/11/03 07:06:19;;;;;;;3.03;1.80;;;7.20;99.90;;;;;;5130670;27;20626;-83
2022/11/03 07:08:49;;;;;;;2.63;2.43;;;7.30;99.90;;;;;;5127127;27;20618;-82
2022/11/03 07:11:19;;;;;;;4.07;2.70;;;7.40;99.90;;;;;;5122476;27;21209;-85
2022/11/03 07:13:47;;;;;;;3.13;2.63;;;7.40;99.90;;;;;;5110953;27;20635;-82
2022/11/03 07:16:19;;;;;;;3.10;1.43;;;7.50;99.90;;;;;;5129431;27;20711;-83
2022/11/03 07:18:47;;;;;;;1.80;1.70;;;7.70;99.90;;;;;;5127766;27;20619;-83
2022/11/03 07:21:28;;;;;;;8.10;2.33;;;7.70;99.90;;;;;;5120199;27;20754;-83
2022/11/03 07:23:56;;;;;;;2.53;1.90;;;7.80;99.90;;;;;;5112698;27;20627;-83
2022/11/03 07:26:23;;;;;;;3.37;2.13;;;7.90;99.90;;;;;;5123905;27;20615;-83
2022/11/03 07:28:51;;;;;;;1.80;1.70;;;7.80;99.90;;;;;;5116544;27;20626;-83
2022/11/03 07:31:22;;;;;;;1.70;1.60;;;7.80;99.90;;;;;;5116442;27;21221;-83
2022/11/03 07:33:49;;;;;;;1.70;1.60;;;8.00;99.90;;;;;;5116858;27;20915;-83
2022/11/03 07:36:22;;;;;;;2.87;1.90;;;7.90;99.90;;;;;;5110002;27;21164;-83
2022/11/03 07:38:52;;;;;;;2.70;2.50;;;8.10;99.90;;;;;;5124645;27;20614;-83
2022/11/03 07:41:22;;;;;;;1.93;1.83;;;8.20;99.90;;;;;;5115312;27;20650;-83
2022/11/03 07:43:53;;;;;;;4.13;3.30;;;8.10;99.90;;;;;;5115178;27;20728;-85
2022/11/03 07:46:21;;;;;;;2.27;1.70;;;8.20;99.90;;;;;;5111923;27;20632;-83
2022/11/03 07:48:50;;;;;;;4.20;2.33;;;8.30;99.90;;;;;;5127236;27;20619;-82
2022/11/03 07:51:23;;;;;;;2.60;1.90;;;8.30;99.90;;;;;;5123355;27;21247;-83
2022/11/03 07:53:53;;;;;;;2.47;1.57;;;8.30;99.90;;;;;;5119526;27;20611;-82
2022/11/03 07:56:33;;;;;;;1.37;1.27;;;8.40;99.90;;;;;;5117028;27;20693;-82
2022/11/03 07:59:16;;;;;;;2.37;1.80;;;8.50;99.90;;;;;;5111989;27;20638;-82
2022/11/03 08:01:48;;;;;;;3.87;2.00;;;7.70;99.90;;;;;;5123730;27;20798;-82
2022/11/03 08:04:19;;;;;;;2.47;2.27;;;7.90;99.90;;;;;;5120539;27;20645;-82
2022/11/03 08:06:48;;;;;;;2.40;1.50;;;8.60;99.90;;;;;;5118576;27;20707;-82
2022/11/03 08:09:18;;;;;;;2.00;1.60;;;8.70;99.90;;;;;;5114841;27;20616;-81
2022/11/03 08:11:51;;;;;;;2.83;2.03;;;8.80;99.90;;;;;;5117167;27;20618;-83
2022/11/03 08:14:21;;;;;;;3.00;2.03;;;8.90;99.90;;;;;;5114471;27;20636;-83
2022/11/03 08:16:48;;;;;;;4.07;2.30;;;;;;;;;;5120834;27;20652;-83
2022/11/03 08:19:15;;;;;;;1.20;1.20;;;8.90;99.90;;;;;;5122564;27;20681;-82
2022/11/03 08:21:51;;;;;;;1.73;1.63;;;8.90;99.90;;;;;;5108522;28;20738;-82
2022/11/03 08:24:21;;;;;;;1.60;1.50;;;8.90;99.90;;;;;;5122107;27;20666;-83
2022/11/03 08:26:48;;;;;;;2.10;1.90;;;9.10;99.90;;;;;;5125486;27;20626;-83
2022/11/03 08:29:16;;;;;;;3.97;2.57;;;9.20;99.90;;;;;;5115167;27;20689;-83
2022/11/03 08:31:43;;;;;;;1.50;1.20;;;8.10;99.90;;;;;;5127160;27;21010;-82
2022/11/03 08:34:10;;;;;;;2.60;1.80;;;9.30;99.90;;;;;;5112192;27;20619;-83
2022/11/03 08:36:37;;;;;;;2.47;2.23;;;9.20;99.90;;;;;;5122636;27;20627;-83
2022/11/03 08:39:06;;;;;;;3.30;2.77;;;9.70;99.90;;;;;;5126619;27;20623;-82
2022/11/03 08:41:33;;;;;;;1.27;1.10;;;9.50;99.90;;;;;;5117028;27;20667;-82
2022/11/03 08:43:59;;;;;;;1.93;1.50;;;9.50;99.90;;;;;;5115060;27;20622;-83
2022/11/03 08:46:26;;;;;;;1.63;1.53;;;9.60;99.90;;;;;;5114141;27;21030;-82
2022/11/03 08:48:53;;;;;;;1.27;1.17;;;9.60;99.90;;;;;;5123039;27;20714;-84
2022/11/03 08:51:20;;;;;;;2.40;1.53;;;9.70;99.90;;;;;;5106578;28;21272;-83
2022/11/03 08:53:49;;;;;;;2.40;1.43;;;9.80;99.90;;;;;;5115186;27;20622;-82
2022/11/03 08:56:17;;;;;;;2.37;2.20;;;9.70;99.90;;;;;;5107961;28;20655;-82
2022/11/03 08:58:44;;;;;;;1.43;1.33;;;9.80;99.90;;;;;;5107942;28;20663;-82
2022/11/03 09:01:12;;;;;;;2.03;1.93;;;9.80;99.90;;;;;;5107538;28;21234;-83
2022/11/03 09:03:39;;;;;;;1.63;0.97;;;9.90;99.90;;;;;;5108434;28;20616;-83
2022/11/03 09:06:06;;;;;;;1.90;1.27;;;10.00;99.90;;;;;;5106210;28;20715;-83
2022/11/03 09:08:33;;;;;;;1.70;1.60;;;10.00;99.90;;;;;;5107579;28;20710;-82
2022/11/03 09:11:00;;;;;;;1.93;1.60;;;10.60;99.90;;;;;;5107557;28;20658;-82
2022/11/03 09:13:28;;;;;;;1.03;0.93;;;10.20;99.90;;;;;;5107896;28;20709;-83
2022/11/03 09:15:55;;;;;;;1.20;1.10;;;10.20;99.90;;;;;;5108081;28;20680;-83
2022/11/03 09:18:23;;;;;;;8.50;1.97;;;10.30;99.90;;;;;;5126588;27;21085;-83
2022/11/03 09:20:50;;;;;;;2.30;1.50;;;;;;;;;;5126647;27;20676;-83
2022/11/03 09:23:17;;;;;;;2.03;1.27;;;10.40;99.90;;;;;;5118444;27;20670;-83
2022/11/03 09:25:44;;;;;;;1.87;1.77;;;10.40;99.90;;;;;;5127719;27;20611;-82
2022/11/03 09:28:10;;;;;;;2.20;1.33;;;10.50;99.90;;;;;;5119281;27;21005;-83
2022/11/03 09:30:39;;;;;;;1.60;1.50;;;10.50;99.90;;;;;;5108398;28;20612;-82
2022/11/03 09:33:06;;;;;;;1.20;1.10;;;10.60;99.90;;;;;;5107123;28;20620;-82
2022/11/03 09:35:33;;;;;;;1.97;1.87;;;10.80;99.90;;;;;;5107360;28;21162;-82
2022/11/03 09:37:59;;;;;;;0.97;0.97;;;10.70;99.90;;;;;;5106882;28;21200;-82
2022/11/03 09:40:26;;;;;;;2.40;1.20;;;10.70;99.90;;;;;;5107206;28;20669;-83
2022/11/03 09:42:53;;;;;;;0.80;0.80;;;10.70;99.90;;;;;;5107834;28;20665;-83
2022/11/03 09:45:20;;;;;;;1.27;1.17;;;10.80;99.90;;;;;;5107492;28;20635;-82
2022/11/03 09:47:48;;;;;;;3.53;1.50;;;10.80;99.90;;;;;;5106297;28;20723;-83
2022/11/03 09:50:18;;;;;;;0.90;0.90;;;10.80;99.90;;;;;;5107610;28;21250;-82
2022/11/03 09:52:45;;;;;;;2.60;2.43;;;11.40;99.90;;;;;;5106429;28;20635;-83
2022/11/03 09:55:17;;;;;;;2.80;2.03;;;10.90;99.90;;;;;;5106963;28;20651;-82
2022/11/03 09:57:45;;;;;;;1.80;1.23;;;11.00;99.90;;;;;;5106589;28;20692;-83
2022/11/03 10:00:19;;;;;;;0.90;0.90;;;11.00;99.90;;;;;;5107178;28;20618;-82
2022/11/03 10:02:49;;;;;;;5.63;1.53;;;11.10;99.90;;;;;;5106952;28;20695;-83
2022/11/03 10:05:21;;;;;;;1.90;1.30;;;11.20;99.90;;;;;;5108073;28;21022;-83
2022/11/03 10:07:49;;;;;;;1.20;1.10;;;11.30;99.90;;;;;;5105847;28;20608;-82
2022/11/03 10:10:18;;;;;;;1.03;0.97;;;11.20;99.90;;;;;;5107216;28;20631;-83
2022/11/03 10:12:46;;;;;;;3.47;1.50;;;11.20;99.90;;;;;;5106553;28;20676;-84
2022/11/03 10:15:18;;;;;;;1.43;1.23;;;11.10;99.90;;;;;;5108305;28;20627;-83
2022/11/03 10:17:46;;;;;;;2.20;2.00;;;11.10;99.90;;;;;;5122556;27;21052;-83
2022/11/03 10:20:16;;;;;;;1.80;1.70;;;11.20;99.90;;;;;;5132079;27;20718;-83
2022/11/03 10:22:45;;;;;;;4.33;1.47;;;11.20;99.90;;;;;;5131678;27;20669;-83
2022/11/03 10:25:29;;;;;;;1.97;1.70;;;11.20;99.90;;;;;;5131398;27;21004;-83
2022/11/03 10:28:17;;;;;;;2.13;1.33;;;11.30;99.90;;;;;;5130377;27;20611;-82
2022/11/03 10:30:53;;;;;;;4.20;2.00;;;11.30;99.90;;;;;;5131903;27;20699;-84
2022/11/03 10:33:29;;;;;;;1.23;1.03;;;11.30;99.90;;;;;;5126019;27;20611;-83
2022/11/03 10:35:58;;;;;;;3.23;1.60;;;11.40;99.90;;;;;;5111280;28;20603;-83
2022/11/03 10:38:29;;;;;;;1.60;1.50;;;11.30;99.90;;;;;;5110321;28;20661;-83
2022/11/03 10:40:57;;;;;;;3.00;1.10;;;11.40;99.90;;;;;;5111351;28;20702;-83
2022/11/03 10:43:24;;;;;;;1.53;1.43;;;11.40;99.90;;;;;;5110962;28;20663;-83
2022/11/03 10:46:11;;;;;;;1.40;1.30;;;11.40;99.90;;;;;;5110570;27;21189;-83
2022/11/03 10:48:38;;;;;;;1.13;1.03;;;11.50;99.90;;;;;;5110941;28;20612;-83
2022/11/03 10:51:09;;;;;;;1.83;1.57;;;11.50;99.90;;;;;;5110954;28;21079;-83
2022/11/03 10:53:36;;;;;;;2.23;1.67;;;11.60;99.90;;;;;;5119970;27;21071;-82
2022/11/03 10:56:04;;;;;;;1.47;1.30;;;11.50;99.90;;;;;;5113905;27;20662;-83
2022/11/03 10:58:33;;;;;;;1.43;1.27;;;11.60;99.90;;;;;;5121442;27;20642;-83
2022/11/03 11:01:00;;;;;;;1.83;1.73;;;11.70;99.90;;;;;;5130264;27;20637;-82
2022/11/03 11:03:27;;;;;;;2.30;1.40;;;11.70;99.90;;;;;;5111824;27;20703;-82
2022/11/03 11:05:54;;;;;;;1.50;1.40;;;11.70;99.90;;;;;;5111398;27;21275;-83
2022/11/03 11:08:23;;;;;;;2.00;1.40;;;11.80;99.90;;;;;;5113338;27;21031;-82
2022/11/03 11:10:50;;;;;;;3.33;1.90;;;11.80;99.90;;;;;;5121312;27;20623;-82
2022/11/03 11:13:29;;;;;;;1.80;1.20;;;11.80;99.90;;;;;;5118225;27;20626;-82
2022/11/03 11:15:58;;;;;;;1.30;1.17;;;11.90;99.90;;;;;;5115447;27;20623;-82
2022/11/03 11:19:07;;;;;;;2.57;1.37;;;12.20;99.90;;;;;;5129570;27;20610;-83
2022/11/03 11:21:59;;;;;;;3.67;1.80;;;11.90;99.90;;;;;;5129271;27;20634;-83
2022/11/03 11:25:02;;;;;;;1.80;1.70;;;12.00;99.90;;;;;;5126262;27;20711;-84
2022/11/03 11:27:56;;;;;;;2.37;1.37;;;12.00;99.90;;;;;;5111364;27;20627;-83
2022/11/03 11:30:59;;;;;;;3.73;1.43;;;12.00;99.90;;;;;;5110202;27;20626;-84
2022/11/03 11:33:27;;;;;;;1.30;0.87;;;12.10;99.90;;;;;;5122081;27;20710;-83
2022/11/03 11:36:18;;;;;;;1.37;1.10;;;12.10;99.60;;;;;;5124149;27;21177;-83
2022/11/03 11:38:57;;;;;;;1.33;1.23;;;12.10;99.30;;;;;;5112181;27;20822;-81
2022/11/03 11:41:57;;;;;;;1.07;0.97;;;12.10;99.70;;;;;;5117758;27;21019;-81
2022/11/03 11:44:53;;;;;;;1.77;1.47;;;12.10;99.60;;;;;;5109636;27;20639;-85
2022/11/03 11:47:32;;;;;;;1.17;0.97;;;12.20;99.60;;;;;;5110338;27;20665;-84
2022/11/03 11:50:22;;;;;;;1.77;1.40;;;12.30;99.80;;;;;;5114433;27;20718;-82
2022/11/03 11:52:53;;;;;;;0.80;0.77;;;12.30;99.90;;;;;;5113239;27;20660;-82
2022/11/03 11:55:26;;;;;;;1.20;1.10;;;12.30;99.30;;;;;;5117809;27;20664;-82
2022/11/03 11:57:54;;;;;;;1.30;1.10;;;12.40;99.20;;;;;;5129639;27;20648;-84
2022/11/03 12:00:24;;;;;;;2.57;1.40;;;12.50;99.20;;;;;;5117546;27;20628;-83
2022/11/03 12:02:52;;;;;;;1.07;0.97;;;12.50;99.00;;;;;;5123525;27;20673;-82
2022/11/03 12:05:21;;;;;;;4.33;1.60;;;12.40;99.30;;;;;;5123063;27;20647;-85
2022/11/03 12:07:48;;;;;;;2.40;1.57;;;12.60;99.20;;;;;;5122456;27;20623;-84
2022/11/03 12:10:17;;;;;;;1.13;1.07;;;12.60;99.10;;;;;;5128729;27;20719;-85
2022/11/03 12:12:44;;;;;;;1.27;1.00;;;12.60;99.30;;;;;;5127564;27;20615;-84
2022/11/03 12:15:54;;;;;;;0.93;0.93;;;12.60;99.20;;;;;;5116109;27;20719;-84
2022/11/03 12:18:32;;;;;;;1.40;1.30;;;12.50;99.30;;;;;;5119495;27;20623;-84
2022/11/03 12:21:00;;;;;;;1.20;1.10;;;12.60;99.20;;;;;;5121938;27;20683;-84
2022/11/03 12:23:35;;;;;;;0.97;0.80;;;12.60;99.30;;;;;;5120467;27;20705;-84
2022/11/03 12:26:03;;;;;;;3.37;3.07;;;12.50;99.20;;;;;;5120303;27;21056;-84
2022/11/03 12:28:33;;;;;;;1.17;1.17;;;12.50;99.30;;;;;;5114408;27;20632;-85
2022/11/03 12:31:02;;;;;;;2.00;1.83;;;12.60;99.40;;;;;;5121558;27;20723;-84
2022/11/03 12:33:29;;;;;;;0.60;0.60;;;12.50;99.40;;;;;;5118470;27;20619;-85
2022/11/03 12:35:56;;;;;;;1.30;1.00;;;12.40;99.70;;;;;;5113878;27;21432;-84
2022/11/03 12:38:25;;;;;;;1.83;1.73;;;12.40;99.80;;;;;;5126905;27;20611;-85
2022/11/03 12:40:53;;;;;;;3.27;1.70;;;12.40;99.90;;;;;;5124486;27;20634;-84
2022/11/03 12:43:20;;;;;;;3.10;2.37;;;12.40;99.90;;;;;;5109841;27;20766;-84
2022/11/03 12:45:46;;;;;;;3.37;3.07;;;12.40;99.90;;;;;;5114364;27;20735;-84
2022/11/03 12:48:15;;;;;;;2.00;1.77;;;12.50;99.90;;;;;;5119939;27;20676;-84
2022/11/03 12:50:41;;;;;;;2.03;1.83;;;12.50;99.90;;;;;;5123761;27;20753;-84
2022/11/03 12:53:08;;;;;;;2.30;2.13;;;12.60;99.90;;;;;;5114686;27;20631;-86
2022/11/03 12:55:36;;;;;;;2.00;1.80;;;12.60;99.90;;;;;;5114533;27;20661;-85
2022/11/03 12:58:03;;;;;;;5.20;2.00;;;12.50;99.90;;;;;;5105996;28;20620;-84
2022/11/03 13:00:30;;;;;;;2.17;1.97;;;12.50;99.90;;;;;;5105977;28;20620;-86
2022/11/03 13:02:56;;;;;;;2.33;1.80;;;12.50;99.90;;;;;;5105922;28;21631;-85
2022/11/03 13:05:25;;;;;;;2.47;1.70;;;12.50;99.90;;;;;;5105836;28;20656;-85
2022/11/03 13:07:53;;;;;;;1.60;1.50;;;12.50;99.90;;;;;;5104791;28;20938;-84
2022/11/03 13:10:19;;;;;;;1.47;1.37;;;12.50;99.90;;;;;;5117608;27;20716;-85
2022/11/03 13:12:47;;;;;;;2.03;1.83;;;12.50;99.90;;;;;;5109311;27;20718;-84
2022/11/03 13:15:14;;;;;;;3.13;1.77;;;12.50;99.90;;;;;;5114389;27;21340;-85
2022/11/03 13:17:42;;;;;;;2.13;1.70;;;12.50;99.90;;;;;;5119235;27;20715;-84
2022/11/03 13:20:13;;;;;;;1.83;1.73;;;12.50;99.90;;;;;;5115605;27;20720;-85
2022/11/03 13:22:41;;;;;;;1.37;1.27;;;12.50;99.90;;;;;;5115414;28;20662;-85
2022/11/03 13:25:08;;;;;;;1.80;1.43;;;12.60;99.90;;;;;;5116987;28;20652;-86
2022/11/03 13:27:36;;;;;;;2.80;2.10;;;12.50;99.90;;;;;;5112720;28;20608;-85
2022/11/03 13:30:03;;;;;;;2.77;2.50;;;12.70;99.90;;;;;;5115621;28;20619;-85